チューリヒ国際空港の過去48時間の天気

チューリヒ国際空港 (Zurich-Kloten)

現在時刻: 9/28 10:30 CEST (9/28 08:30 UTC) 以下の時間は現地時間です。

過去48時間のMETAR気象情報
時間 風向 風速(m/s) 視程 気温(℃) 湿度(%) 気圧(hPa) 天気現象
28 10:20 不定 1 10km以上 10 71 1012
28 09:50 南南東 2 10km以上 9 76 1012
28 09:20 不定 2 10km以上 8 87 1011
28 08:50 不定 1 10km以上 7 87 1011
28 08:20 西北西 2 10km以上 5 93 1011
28 07:50 1 10km以上 4 100 1010
28 07:20 西 2 10km以上 4 100 1010
28 06:50 北西 2 10km以上 5 93 1010
28 06:20 北西 2 10km以上 5 93 1010
28 05:50 北西 2 10km以上 5 93 1010
28 05:20 北北西 2 10km以上 5 93 1010
28 04:50 西北西 1 10km以上 4 100 1010
28 04:20 不定 1 10km以上 6 93 1010
28 03:50 不定 1 10km以上 6 93 1010
28 03:20 不定 1 10km以上 6 93 1010
28 02:50 静穏 0 10km以上 6 93 1009
28 01:50 不定 1 10km以上 5 100 1009
28 01:20 南南東 1 10km以上 5 93 1009
28 00:50 不定 1 10km以上 6 87 1009
28 00:20 2 10km以上 7 81 1009
27 23:50 南南西 2 10km以上 8 81 1009
27 23:20 2 10km以上 7 87 1009
27 22:50 南南西 2 10km以上 6 87 1009
27 22:20 不定 1 10km以上 7 81 1009
27 21:50 2 10km以上 7 81 1008
27 21:20 不定 1 10km以上 8 76 1008
27 20:50 不定 1 10km以上 8 76 1008
27 20:20 不定 1 10km以上 7 81 1008
27 19:50 不定 2 10km以上 8 76 1007
27 19:20 西北西 2 10km以上 8 76 1007
27 18:50 不定 1 10km以上 9 71 1007
27 18:20 西 2 10km以上 10 71 1006
27 17:50 西 4 10km以上 11 67 1006
27 17:20 西 5 10km以上 11 62 1006
27 16:50 西北西 4 10km以上 12 67 1006
27 16:20 西北西 3 10km以上 11 67 1006
27 15:50 西 4 10km以上 11 67 1006
27 15:20 西 4 10km以上 11 62 1005
27 14:50 西 3 10km以上 11 67 1005
27 14:20 西 4 10km以上 11 62 1005
27 13:50 西 4 10km以上 11 62 1005
27 13:20 西南西 4 10km以上 11 62 1005
27 12:50 西南西 6 10km以上 10 62 1005
27 12:20 西南西 7 10km以上 10 62 1004
27 11:50 西 5 10km以上 10 66 1004
27 11:20 西南西 3 10km以上 10 71 1004
27 10:50 南西 5 10km以上 10 62 1003
27 10:20 西南西 5 10km以上 10 66 1003
27 09:50 南西 4 10km以上 9 66 1003
27 09:20 南西 5 10km以上 9 66 1003
27 08:50 南西 4 10km以上 8 76 1003
27 08:20 西南西 4 10km以上 8 76 1003
27 07:50 西南西 6 10km以上 8 76 1003
27 07:20 西南西 5 10km以上 8 71 1003
27 06:50 南西 4 10km以上 8 71 1003 弱い霧雨
27 06:20 南南西 3 10km以上 8 76 1003
27 05:50 南南西 3 10km以上 7 81 1003
27 05:20 南南西 2 10km以上 8 76 1004
27 04:50 3 10km以上 7 81 1003
27 04:20 南南西 3 10km以上 7 87 1004
27 03:50 南南西 3 10km以上 7 87 1004 弱い霧雨
27 03:20 南西 4 10km以上 7 81 1004
27 02:50 南南西 3 10km以上 7 87 1004 弱い雨
27 01:50 南西 3 10km以上 7 87 1005 弱い雨 弱い霧雨
27 01:20 南西 4 10km以上 7 87 1005 弱い雨
27 00:50 南西 4 10km以上 6 93 1005
27 00:20 南西 4 6000m 7 87 1005 弱い雨 弱い霧雨
26 23:50 南西 4 10km以上 7 87 1005 弱い霧雨
26 23:20 南西 3 9000m 7 87 1005 弱い霧雨 弱い雨
26 22:50 南西 3 10km以上 7 87 1005 弱い霧雨 弱い雨
26 22:20 南西 4 10km以上 7 87 1005 弱い雨
26 21:50 南西 4 10km以上 7 87 1005 弱い雨
26 21:20 西南西 3 10km以上 7 87 1005 弱い雨
26 20:50 南西 3 10km以上 7 87 1005 弱い雨
26 20:20 西南西 4 10km以上 7 87 1005 弱い雨
26 19:50 西南西 4 10km以上 7 87 1006 弱い雨
26 19:20 西南西 4 10km以上 7 87 1005 弱い雨
26 18:50 西南西 5 10km以上 7 87 1005 弱い雨
26 18:20 南西 5 10km以上 7 87 1005 弱い雨
26 17:50 南西 6 10km以上 7 87 1005 弱い雨
26 17:20 西南西 6 10km以上 7 87 1005 弱い雨
26 16:50 西 7 10km以上 8 81 1005 弱い雨
26 16:20 西南西 7 10km以上 9 71 1004 弱い雨
26 15:50 西南西 5 10km以上 9 71 1004 弱い雨
26 15:20 西南西 6 10km以上 9 71 1004 弱い雨
26 14:50 西 7 10km以上 9 66 1005 弱い雨
26 14:20 西南西 7 10km以上 9 71 1005
26 13:50 南西 5 10km以上 9 76 1005
26 13:20 西 6 10km以上 8 76 1005 弱い霧雨
26 12:50 西南西 4 10km以上 8 87 1005 弱い霧雨
26 12:20 西南西 5 10km以上 8 81 1005 弱い雨
26 11:50 西南西 7 10km以上 8 76 1005 弱い雨
26 11:20 西南西 7 10km以上 8 81 1005 弱い雨
26 10:50 西南西 8 10km以上 7 81 1005 弱い雨
LSZH 280820Z VRB02KT 9999 FEW027 10/05 Q1012 NOSIG
LSZH 280750Z 15003KT 9999 FEW027 09/05 Q1012 NOSIG
LSZH 280720Z VRB03KT 9999 FEW027 08/06 Q1011 NOSIG
LSZH 280650Z VRB01KT 9999 FEW050 07/05 Q1011 NOSIG
LSZH 280620Z 30003KT CAVOK 05/04 Q1011 NOSIG
LSZH 280550Z 36002KT 9999 FEW050 04/04 Q1010 NOSIG
LSZH 280520Z 28003KT 9999 SCT055 04/04 Q1010 NOSIG
LSZH 280450Z 32003KT 9999 BKN055 05/04 Q1010 NOSIG
LSZH 280420Z 31003KT 9999 BKN055 05/04 Q1010 NOSIG
LSZH 280350Z 31004KT 9999 BKN055 05/04 Q1010 NOSIG
LSZH 280320Z 34003KT 9999 BKN055 05/04 Q1010 NOSIG
LSZH 280250Z 30002KT 9999 SCT060 04/04 Q1010 NOSIG
LSZH 280220Z VRB02KT 9999 SCT050 06/05 Q1010 NOSIG
LSZH 280150Z VRB02KT 9999 BKN055 06/05 Q1010 NOSIG
LSZH 280120Z VRB01KT 9999 BKN055 06/05 Q1010 NOSIG
LSZH 280050Z 00000KT 9999 FEW035 BKN050 06/05 Q1009 NOSIG
LSZH 272350Z VRB02KT 9999 FEW035 BKN050 05/05 Q1009 NOSIG
LSZH 272320Z 15002KT 9999 FEW040 SCT050 05/04 Q1009 NOSIG
LSZH 272250Z VRB01KT 9999 FEW050 06/04 Q1009 NOSIG
LSZH 272220Z 19003KT 9999 SCT050 07/04 Q1009 NOSIG
LSZH 272150Z 20004KT 9999 FEW038 BKN050 08/05 Q1009 NOSIG
LSZH 272120Z 19004KT 9999 FEW038 BKN050 07/05 Q1009 NOSIG
LSZH 272050Z 21003KT 180V280 9999 FEW040 BKN050 06/04 Q1009 NOSIG
LSZH 272020Z VRB02KT 9999 SCT050 07/04 Q1009 NOSIG
LSZH 271950Z 19004KT 9999 FEW050 07/04 Q1008 NOSIG
LSZH 271920Z VRB01KT 9999 FEW050 08/04 Q1008 NOSIG
LSZH 271850Z VRB01KT 9999 FEW050 08/04 Q1008 NOSIG
LSZH 271820Z VRB02KT 9999 FEW050 07/04 Q1008 NOSIG
LSZH 271750Z VRB03KT 9999 SCT050 08/04 Q1007 NOSIG
LSZH 271720Z 30004KT 9999 FEW050 08/04 Q1007 NOSIG
LSZH 271650Z VRB02KT 9999 FEW045 09/04 Q1007 NOSIG
LSZH 271620Z 27004KT 240V310 9999 FEW040 10/05 Q1006 NOSIG
LSZH 271550Z 27008KT 250V320 9999 FEW030 11/05 Q1006 NOSIG
LSZH 271520Z 28010KT 240V310 9999 FEW030 11/04 Q1006 NOSIG
LSZH 271450Z 30007KT 250V350 9999 FEW030 12/06 Q1006 NOSIG
LSZH 271420Z 29006KT 250V330 9999 FEW030 11/05 Q1006 NOSIG
LSZH 271350Z 27008KT 240V320 9999 FEW030 11/05 Q1006 NOSIG
LSZH 271320Z 27008KT 230V300 9999 FEW030 11/04 Q1005 NOSIG
LSZH 271250Z 26006KT 230V320 9999 FEW030 11/05 Q1005 NOSIG
LSZH 271220Z 28007KT 9999 FEW030 SCT075 11/04 Q1005 NOSIG
LSZH 271150Z 26008KT 9999 FEW030 SCT075 11/04 Q1005 NOSIG
LSZH 271120Z 25008KT 210V290 9999 FEW030 BKN076 11/04 Q1005 NOSIG
LSZH 271050Z 24012KT 210V270 9999 FEW028 SCT066 BKN075 10/03 Q1005 NOSIG
LSZH 271020Z 24013KT 9999 FEW028 SCT066 BKN070 10/03 Q1004 NOSIG
LSZH 270950Z 26009KT 9999 FEW024 SCT067 BKN078 10/04 Q1004 NOSIG
LSZH 270920Z 24006KT 170V310 9999 FEW050 SCT070 BKN076 10/05 Q1004 NOSIG
LSZH 270850Z 23009KT 190V290 9999 FEW050 SCT065 BKN075 10/03 Q1003 NOSIG
LSZH 270820Z 24009KT 210V290 9999 FEW026 SCT064 10/04 Q1003 NOSIG
LSZH 270750Z 22007KT 190V270 9999 FEW025 SCT057 BKN070 09/03 Q1003 NOSIG
LSZH 270720Z 23009KT 200V260 9999 FEW025 BKN065 09/03 Q1003 NOSIG
LSZH 270650Z 22008KT 190V250 9999 FEW023 BKN063 08/04 Q1003 NOSIG
LSZH 270620Z 24007KT 200V270 9999 FEW023 SCT055 BKN064 08/04 Q1003 NOSIG
LSZH 270550Z 24011KT 9999 FEW023 SCT055 BKN074 08/04 Q1003 NOSIG
LSZH 270520Z 24010KT 9999 FEW025 SCT059 BKN077 08/03 Q1003 NOSIG
LSZH 270450Z 23007KT 200V260 9999 -DZ FEW025 SCT050 BKN075 08/03 Q1003 NOSIG
LSZH 270420Z 21005KT 9999 FEW025 BKN045 BKN075 08/04 Q1003 NOSIG
LSZH 270350Z 20006KT 9999 FEW025 SCT030 BKN040 07/04 Q1003 NOSIG
LSZH 270320Z 21004KT 160V240 9999 FEW015 SCT035 BKN040 08/04 Q1004 NOSIG
LSZH 270250Z 19006KT 9999 FEW016 SCT035 BKN040 07/04 Q1003 NOSIG
LSZH 270220Z 20006KT 9999 FEW016 SCT030 BKN035 07/05 Q1004 NOSIG
LSZH 270150Z 20006KT 9999 -DZ FEW016 SCT030 BKN040 07/05 Q1004 NOSIG
LSZH 270120Z 22007KT 9999 FEW016 SCT030 BKN040 07/04 Q1004 RERADZ TEMPO RA
LSZH 270050Z 21005KT 180V240 9999 -RA FEW013 SCT030 BKN055 07/05 Q1004 TEMPO RA
LSZH 262350Z 23006KT 200V310 9999 -RADZ FEW013 SCT017 BKN025 07/05 Q1005 TEMPO RA
LSZH 262320Z 23007KT 9999 -RA FEW015 SCT025 BKN035 07/05 Q1005 RERA TEMPO RA
LSZH 262250Z 23008KT 9999 RA FEW012 SCT015 BKN025 06/05 Q1005 TEMPO 4000 BKN013
LSZH 262220Z 22007KT 080V250 6000 -RADZ SCT012 SCT016 BKN020 07/05 Q1005 TEMPO 4000 RA BKN013
LSZH 262150Z 23007KT 9999 -DZ SCT013 SCT018 BKN023 07/05 Q1005 TEMPO RA BKN013
LSZH 262120Z 23006KT 190V270 9000 -DZRA FEW013 SCT016 BKN023 07/05 Q1005 TEMPO BKN013
LSZH 262050Z 23005KT 200V260 9999 -DZRA FEW015 SCT018 BKN027 07/05 Q1005 NOSIG
LSZH 262020Z 22007KT 180V250 9999 -RA FEW015 BKN025 07/05 Q1005 NOSIG
LSZH 261950Z 23007KT 9999 -RA FEW012 BKN025 07/05 Q1005 TEMPO RA
LSZH 261920Z 24006KT 200V270 9999 -RA FEW012 BKN030 07/05 Q1005 TEMPO RA
LSZH 261850Z 22006KT 190V250 9999 -RA FEW012 BKN020 07/05 Q1005 TEMPO RA
LSZH 261820Z 24008KT 9999 -RA FEW012 BKN020 07/05 Q1005 TEMPO RA
LSZH 261750Z 24008KT 9999 -RA FEW015 BKN020 07/05 Q1006 TEMPO RA
LSZH 261720Z 24007KT 200V290 9999 -RA FEW015 BKN024 07/05 Q1005 TEMPO RA
LSZH 261650Z 24010KT 9999 -RA FEW015 BKN027 07/05 Q1005 TEMPO RA
LSZH 261620Z 23010KT 200V260 9999 -RA FEW015 BKN030 07/05 Q1005 TEMPO RA
LSZH 261550Z 23012KT 200V270 9999 -RA FEW015 BKN030 07/05 Q1005 TEMPO RA
LSZH 261520Z 25011KT 9999 -RA FEW015 BKN030 07/05 Q1005 TEMPO RA
LSZH 261450Z 26014KT 9999 -RA FEW015 BKN030 08/05 Q1005 TEMPO NSW
LSZH 261420Z 25013KT 9999 -RA FEW015 BKN040 09/04 Q1004 TEMPO RA
LSZH 261350Z 25010KT 210V290 9999 -RA FEW015 BKN040 09/04 Q1004 TEMPO RA
LSZH 261320Z 25011KT 220V280 9999 -RA FEW015 SCT040 BKN075 09/04 Q1004 TEMPO RA
LSZH 261250Z 26014KT 220V280 9999 -RA FEW018 BKN040 09/03 Q1005 TEMPO RA
LSZH 261220Z 25013KT 9999 FEW022 SCT036 BKN052 09/04 Q1005 TEMPO RA
LSZH 261150Z 22010KT 180V250 9999 FEW022 SCT037 BKN056 09/05 Q1005 TEMPO RA
LSZH 261120Z 26012KT 220V300 9999 -DZ FEW018 SCT029 BKN042 08/04 Q1005 TEMPO RA
LSZH 261050Z 25008KT 9999 -DZ FEW018 SCT027 BKN038 08/06 Q1005 TEMPO RA
LSZH 261020Z 25010KT 9999 -RA FEW018 SCT026 BKN032 08/05 Q1005 TEMPO RA
LSZH 260950Z 25014G27KT 9999 -RA FEW020 SCT026 BKN033 08/04 Q1005 TEMPO RA
LSZH 260920Z 25013KT 9999 -RA FEW020 SCT027 BKN034 08/05 Q1005 TEMPO RA
LSZH 260850Z 25015G26KT 210V270 9999 -RA FEW020 SCT025 BKN032 07/04 Q1005 TEMPO RA